Time;durP1;ratioP1;P1;durP2;ratioP2;P2;SDS_P1;SDS_P2;PMS_P1;PMS_P2;Temp;Humidity;BMP_temperature;BMP_pressure;BME280_temperature;BME280_humidity;BME280_pressure;Samples;Min_cycle;Max_cycle;Signal;HPM_P1;HPM_P2
2023/05/21 00:02:16;;;;;;;;;2.00;2.00;;;;;20.29;49.50;66272.50;6366803;22;45272;-84
2023/05/21 00:04:42;;;;;;;;;3.00;3.00;;;;;20.17;49.14;66262.03;6366967;22;46168;-84
2023/05/21 00:07:07;;;;;;;;;2.33;0.67;;;;;20.27;49.79;66168.81;6368004;22;45336;-84
2023/05/21 00:09:34;;;;;;;;;2.67;2.67;;;;;20.26;49.83;66083.94;6367639;22;45395;-84
2023/05/21 00:11:59;;;;;;;;;1.00;1.00;;;;;20.25;49.84;66067.25;6367751;22;45308;-84
2023/05/21 00:14:25;;;;;;;;;2.00;2.00;;;;;20.23;49.76;65934.06;6367190;22;46915;-84
2023/05/21 00:16:50;;;;;;;;;3.00;3.00;;;;;20.22;49.54;65908.75;6367411;22;45424;-83
2023/05/21 00:19:16;;;;;;;;;4.33;2.00;;;;;20.18;49.95;65839.84;6367070;22;45726;-84
2023/05/21 00:21:41;;;;;;;;;3.33;2.00;;;;;20.08;49.69;65685.72;6368364;22;45406;-84
2023/05/21 00:24:06;;;;;;;;;3.00;3.00;;;;;20.11;50.18;65681.66;6367602;22;46135;-86
2023/05/21 00:26:32;;;;;;;;;3.00;3.00;;;;;20.06;50.36;65466.75;6367294;22;45353;-84
2023/05/21 00:28:57;;;;;;;;;2.00;2.00;;;;;20.17;50.28;65455.03;6367829;22;45393;-84
2023/05/21 00:31:23;;;;;;;;;3.00;3.00;;;;;19.91;50.36;65382.75;6368101;22;45478;-84
2023/05/21 00:33:49;;;;;;;;;3.00;3.00;;;;;19.92;49.93;65263.75;6338727;22;45951;-84
2023/05/21 00:36:14;;;;;;;;;4.00;4.00;;;;;20.12;50.17;65199.94;6367796;22;45394;-84
2023/05/21 00:38:44;;;;;;;;;4.00;4.00;;;;;20.01;50.04;65141.94;6367350;22;45264;-83
2023/05/21 00:41:09;;;;;;;;;4.00;3.00;;;;;19.99;50.44;65097.34;6367459;22;45324;-84
2023/05/21 00:43:39;;;;;;;;;3.33;3.33;;;;;20.07;50.17;64987.22;6367032;22;46983;-84
2023/05/21 00:46:10;;;;;;;;;3.67;3.67;;;;;20.05;50.49;64915.81;6367209;22;45290;-85
2023/05/21 00:48:37;;;;;;;;;4.00;4.00;;;;;19.96;50.34;64817.22;6367065;22;45363;-84
2023/05/21 00:51:02;;;;;;;;;3.00;3.00;;;;;19.97;50.16;64772.75;6366517;22;45341;-84
2023/05/21 00:53:29;;;;;;;;;5.33;3.67;;;;;19.95;50.85;64631.66;6367204;22;45900;-84
2023/05/21 00:55:54;;;;;;;;;3.67;3.67;;;;;19.86;50.90;64543.31;6367779;22;45365;-84
2023/05/21 00:58:20;;;;;;;;;3.00;3.00;;;;;19.95;50.52;64491.69;6367620;22;45334;-84
2023/05/21 05:00:13;;;;;;;;;8.33;6.33;;;;;18.56;55.83;45060.69;6250976;22;45860;31
2023/05/21 05:02:38;;;;;;;;;8.00;6.00;;;;;18.56;55.95;44706.25;6270620;22;45434;-82
2023/05/21 05:05:04;;;;;;;;;6.67;6.67;;;;;18.40;55.76;44332.13;6271489;22;47137;-82
2023/05/21 05:07:30;;;;;;;;;6.00;5.33;;;;;18.45;55.62;44218.56;6269564;22;45410;-83
2023/05/21 05:09:55;;;;;;;;;8.67;6.00;;;;;18.45;55.57;43875.69;6269257;22;45339;-84
2023/05/21 05:12:20;;;;;;;;;9.33;6.33;;;;;18.55;56.06;43502.91;6269254;22;58251;-84
2023/05/21 05:14:46;;;;;;;;;5.67;5.67;;;;;18.61;55.72;42987.84;6271721;22;46501;-83
2023/05/21 05:17:14;;;;;;;;;8.33;8.33;;;;;18.61;55.84;42719.09;6303530;22;45319;-83
2023/05/21 05:19:39;;;;;;;;;9.00;6.67;;;;;18.44;56.24;42347.56;6274652;22;45432;-83
2023/05/21 05:22:05;;;;;;;;;5.00;4.00;;;;;18.58;56.32;42307.50;6299947;22;45768;-83
2023/05/21 05:24:31;;;;;;;;;9.33;5.00;;;;;18.51;55.60;42110.75;6302517;22;46233;-82
2023/05/21 05:26:56;;;;;;;;;5.00;5.00;;;;;18.64;55.70;42109.44;6300843;22;45415;-83
2023/05/21 05:29:21;;;;;;;;;5.00;5.00;;;;;18.65;55.70;41155.53;6303213;22;45386;-84
2023/05/21 05:31:47;;;;;;;;;5.00;5.00;;;;;18.47;56.24;41243.44;6301962;22;45629;-84
2023/05/21 05:34:12;;;;;;;;;7.00;6.67;;;;;18.48;56.31;40298.00;6301048;22;45432;-84
2023/05/21 05:36:37;;;;;;;;;9.67;9.00;;;;;18.63;55.81;40470.59;6302240;22;45248;-84
2023/05/21 05:39:03;;;;;;;;;9.67;8.00;;;;;18.68;55.94;40133.78;6302105;22;45388;-83
2023/05/21 05:41:28;;;;;;;;;7.33;6.00;;;;;18.51;55.80;39832.25;6302181;22;45470;-84
2023/05/21 05:43:54;;;;;;;;;7.00;5.67;;;;;18.69;56.10;39631.91;6300602;22;47133;-83
2023/05/21 05:46:19;;;;;;;;;6.00;6.00;;;;;18.55;56.00;39087.78;6302876;22;45432;-83
2023/05/21 05:48:45;;;;;;;;;10.67;7.33;;;;;18.62;55.84;38853.41;6302676;22;45407;-82
2023/05/21 05:51:10;;;;;;;;;8.00;7.67;;;;;18.73;56.13;38376.81;6302782;22;45509;-83
2023/05/21 05:53:38;;;;;;;;;9.00;7.67;;;;;18.75;56.24;37990.44;6274880;22;48147;-83
2023/05/21 05:56:04;;;;;;;;;5.67;5.67;;;;;18.76;56.32;37815.69;6301570;22;45411;-82
2023/05/21 05:58:30;;;;;;;;;5.00;5.00;;;;;18.74;55.91;37612.31;6303101;22;45609;-82
2023/05/21 06:00:55;;;;;;;;;8.00;8.00;;;;;18.79;56.39;37301.41;6302536;22;45885;-83
2023/05/21 06:03:20;;;;;;;;;7.00;5.00;;;;;18.58;56.28;36793.56;6274897;22;55242;-83
2023/05/21 06:05:46;;;;;;;;;5.33;5.33;;;;;18.71;55.90;36892.81;6275290;22;45434;-83
2023/05/21 06:08:11;;;;;;;;;6.33;5.67;;;;;18.84;56.34;36614.03;6300526;22;45521;-84
2023/05/21 06:10:36;;;;;;;;;17.33;13.33;;;;;18.87;56.51;35055.91;6303654;22;45312;-82
2023/05/21 06:13:02;;;;;;;;;6.00;5.00;;;;;18.84;55.89;35575.06;6303100;22;45705;-82
2023/05/21 06:15:27;;;;;;;;;9.67;6.33;;;;;18.89;56.43;34459.47;6303353;22;45567;-82
2023/05/21 06:17:52;;;;;;;;;6.33;5.00;;;;;18.78;56.49;35170.13;6302502;22;45304;-83
2023/05/21 06:20:18;;;;;;;;;6.00;6.00;;;;;18.89;56.29;34871.53;6302573;22;45502;-83
2023/05/21 06:22:43;;;;;;;;;6.00;6.00;;;;;18.86;56.32;35034.34;6301302;22;46040;-83
2023/05/21 06:25:09;;;;;;;;;6.33;4.00;;;;;18.98;56.24;34462.69;6303422;22;45274;-83
2023/05/21 06:27:35;;;;;;;;;9.67;9.00;;;;;18.97;56.35;33935.78;6302298;22;45367;-83
2023/05/21 06:30:00;;;;;;;;;5.00;5.00;;;;;18.98;56.61;33947.03;6302886;22;45337;-84
2023/05/21 06:32:25;;;;;;;;;6.00;6.00;;;;;18.83;56.60;33847.56;6302408;22;49203;-86
2023/05/21 06:34:50;;;;;;;;;5.00;5.00;;;;;19.03;56.21;33535.69;6303103;22;54019;-85
2023/05/21 06:37:22;;;;;;;;;6.00;6.00;;;;;18.94;56.02;33439.94;6302183;22;45669;-85
2023/05/21 06:39:48;;;;;;;;;10.00;7.00;;;;;19.08;55.95;33147.91;6303418;22;45517;-82
2023/05/21 06:42:13;;;;;;;;;7.00;6.33;;;;;18.97;56.23;32942.75;6302831;22;46378;-83
2023/05/21 06:44:38;;;;;;;;;6.33;5.67;;;;;18.97;56.18;32945.13;6303074;22;45310;-84
2023/05/21 06:47:04;;;;;;;;;7.00;6.00;;;;;19.07;56.17;32786.38;6275570;22;46104;-83
2023/05/21 06:49:31;;;;;;;;;5.67;4.33;;;;;19.26;55.67;32289.63;6275977;22;45447;-84
2023/05/21 06:51:56;;;;;;;;;6.67;5.67;;;;;19.26;55.55;32311.19;6274773;22;47077;-84
2023/05/21 06:54:22;;;;;;;;;5.67;5.00;;;;;19.26;56.10;31854.31;6302822;22;50207;-83
2023/05/21 06:56:47;;;;;;;;;3.00;3.00;;;;;19.42;56.06;31347.56;6303798;22;45879;-85
2023/05/21 06:59:13;;;;;;;;;6.00;4.00;;;;;19.46;56.12;30829.19;6304079;22;45264;-84
2023/05/21 07:01:41;;;;;;;;;3.33;3.33;;;;;19.54;56.11;30268.13;6302965;22;46721;-83
2023/05/21 07:04:07;;;;;;;;;5.00;5.00;;;;;19.60;55.83;29822.50;6302586;22;45400;-83
2023/05/21 07:06:33;;;;;;;;;5.67;4.33;;;;;19.53;56.14;29446.63;6302506;22;45415;-85
2023/05/21 07:08:59;;;;;;;;;3.67;3.67;;;;;19.69;56.00;29256.00;6302273;22;45753;-85
2023/05/21 07:11:27;;;;;;;;;3.33;3.33;;;;;19.63;55.55;29252.53;6301793;22;45927;-85
2023/05/21 07:13:53;;;;;;;;;4.67;4.67;;;;;19.76;55.90;28919.72;6302364;22;45546;-86
2023/05/21 07:16:18;;;;;;;;;5.00;5.00;;;;;19.58;55.96;28910.47;6277760;22;45423;-82
2023/05/21 07:18:44;;;;;;;;;4.67;4.67;;;;;19.80;56.07;28956.09;6302326;22;45394;-82
2023/05/21 07:21:09;;;;;;;;;5.33;5.33;;;;;19.80;55.70;28953.72;6301027;22;45923;-83
2023/05/21 07:23:35;;;;;;;;;3.33;3.33;;;;;19.81;55.99;28980.81;6301537;22;45340;-84
2023/05/21 07:26:00;;;;;;;;;4.00;4.00;;;;;19.78;55.55;28644.53;6301785;22;46092;-83
2023/05/21 07:28:25;;;;;;;;;6.00;4.00;;;;;19.74;55.67;28647.50;6303367;22;45518;-86
2023/05/21 07:30:51;;;;;;;;;6.33;5.00;;;;;19.73;55.42;28577.91;6303141;22;50225;-86
2023/05/21 07:33:19;;;;;;;;;3.00;2.00;;;;;19.88;55.93;28585.50;6302498;22;45439;-86
2023/05/21 07:35:53;;;;;;;;;7.00;5.33;;;;;19.87;55.50;28584.97;6302027;22;45578;-88
2023/05/21 07:38:25;;;;;;;;;6.00;5.33;;;;;19.78;56.02;28580.53;6303623;22;45546;-87
2023/05/21 07:40:50;;;;;;;;;7.00;7.00;;;;;19.92;55.85;28661.97;6302377;22;46525;-89
2023/05/21 07:43:15;;;;;;;;;2.67;2.67;;;;;19.92;55.38;28927.91;6302778;22;45748;-85
2023/05/21 07:45:41;;;;;;;;;9.67;7.00;;;;;19.94;55.73;28248.56;6303438;22;45686;-86
2023/05/21 07:48:06;;;;;;;;;5.33;4.33;;;;;19.96;55.27;28589.66;6304309;22;45711;-85
2023/05/21 07:50:31;;;;;;;;;6.67;5.00;;;;;19.81;55.74;28582.09;6302416;22;46421;-86
2023/05/21 07:52:57;;;;;;;;;5.00;5.00;;;;;19.96;55.40;28589.66;6301865;22;45592;-85
2023/05/21 07:55:22;;;;;;;;;6.00;5.00;;;;;20.03;55.70;28593.59;6302841;22;45489;-85
2023/05/21 07:57:48;;;;;;;;;3.67;3.67;;;;;19.91;55.40;28587.31;6303277;22;45320;-86
2023/05/21 08:00:14;;;;;;;;;3.33;3.33;;;;;20.03;55.04;28593.59;6303022;22;46339;-86
2023/05/21 08:02:39;;;;;;;;;4.00;4.00;;;;;19.95;55.37;28589.41;6301908;22;45340;-88
2023/05/21 08:05:05;;;;;;;;;6.67;3.67;;;;;20.17;55.05;28260.47;6300361;22;45358;-86
2023/05/21 08:07:31;;;;;;;;;3.00;3.00;;;;;20.07;55.12;27915.22;6301590;22;45526;-84
2023/05/21 08:09:57;;;;;;;;;6.00;4.33;;;;;20.21;55.16;27581.97;6300764;22;46101;-84
2023/05/21 08:12:22;;;;;;;;;4.67;4.67;;;;;20.09;55.49;27916.22;6301921;22;45319;-89
2023/05/21 08:14:47;;;;;;;;;3.67;2.67;;;;;20.32;54.96;27927.75;6302541;22;45339;-87
2023/05/21 08:17:12;;;;;;;;;3.33;3.33;;;;;20.29;55.48;27925.94;6303298;22;45400;-87
2023/05/21 08:19:38;;;;;;;;;2.00;2.00;;;;;20.29;54.80;27585.75;6300669;22;57370;-90
2023/05/21 08:22:05;;;;;;;;;2.33;2.33;;;;;20.43;55.26;27593.09;6302665;22;45382;-88
2023/05/21 08:24:31;;;;;;;;;3.67;2.67;;;;;20.38;55.11;27250.13;6301463;22;45652;-85
2023/05/21 08:26:56;;;;;;;;;2.67;2.67;;;;;20.50;55.04;27255.88;6303923;22;45432;-85
2023/05/21 08:29:21;;;;;;;;;4.67;4.67;;;;;20.53;55.25;27257.63;6303855;22;46096;-86
2023/05/21 08:31:47;;;;;;;;;3.00;3.00;;;;;20.35;55.05;27248.63;6303819;22;45373;-88
2023/05/21 08:34:12;;;;;;;;;2.33;2.33;;;;;20.52;55.23;27257.13;6302843;22;45482;-85
2023/05/21 08:36:41;;;;;;;;;2.00;2.00;;;;;20.53;55.13;27257.38;6304534;22;45523;-85
2023/05/21 08:39:07;;;;;;;;;3.00;2.00;;;;;20.51;54.45;27596.63;6303719;22;47370;-85
2023/05/21 08:41:34;;;;;;;;;2.00;2.00;;;;;20.69;54.54;27605.75;6302845;22;45324;-86
2023/05/21 08:44:01;;;;;;;;;2.67;2.67;;;;;20.61;54.41;27601.72;6302359;22;45447;-88
2023/05/21 08:46:33;;;;;;;;;3.67;3.67;;;;;20.78;54.81;27610.06;6303134;22;45569;-87
2023/05/21 08:49:01;;;;;;;;;4.00;4.00;;;;;20.68;54.21;27605.00;6302418;22;45977;-85
2023/05/21 08:51:27;;;;;;;;;2.00;2.00;;;;;20.79;54.51;27951.28;6303115;22;45358;-89
2023/05/21 08:53:54;;;;;;;;;2.00;2.00;;;;;20.97;54.22;28300.81;6304954;22;45327;-89
2023/05/21 08:56:20;;;;;;;;;2.33;2.33;;;;;21.04;53.91;27622.97;6305079;22;45661;-91
2023/05/21 08:58:46;;;;;;;;;3.00;3.00;;;;;21.16;53.79;27288.16;6276421;22;48119;-88
2023/05/21 09:01:11;;;;;;;;;2.67;2.67;;;;;21.45;54.10;25939.63;6303033;22;45330;-86
2023/05/21 09:03:39;;;;;;;;;2.00;2.00;;;;;21.73;53.77;24248.91;6303527;22;45487;-89
2023/05/21 09:06:08;;;;;;;;;3.00;3.00;;;;;22.04;53.98;22899.63;6298335;22;45400;-88
2023/05/21 09:08:37;;;;;;;;;4.67;3.00;;;;;22.54;53.73;21216.34;6299308;22;46639;-87
2023/05/21 09:11:03;;;;;;;;;3.00;3.00;;;;;22.99;53.21;19528.63;6303455;22;45306;-87
2023/05/21 09:13:32;;;;;;;;;2.33;2.33;;;;;23.33;53.34;18176.97;6303240;22;45415;-89
2023/05/21 09:15:57;;;;;;;;;3.33;3.00;;;;;23.89;52.56;17513.63;6302785;22;45420;-88
2023/05/21 09:18:23;;;;;;;;;2.67;2.67;;;;;24.31;52.44;17527.78;6303424;22;45959;-89
2023/05/21 09:20:48;;;;;;;;;3.00;3.00;;;;;24.69;51.30;18565.56;6299871;22;45449;-87
2023/05/21 09:23:16;;;;;;;;;4.00;3.00;;;;;25.06;50.75;19262.63;6303184;22;45368;-90
2023/05/21 09:25:46;;;;;;;;;4.00;4.00;;;;;25.46;50.21;19961.41;6300157;22;45814;-86
2023/05/21 09:28:14;;;;;;;;;3.00;3.00;;;;;25.70;49.64;19970.53;6300098;22;46581;-94
2023/05/21 09:30:46;;;;;;;;;4.00;4.00;;;;;26.17;49.20;23073.06;6297860;22;45348;-85
2023/05/21 09:33:11;;;;;;;;;3.00;3.00;;;;;26.32;48.91;25596.88;6301651;22;45329;-86
2023/05/21 09:35:46;;;;;;;;;3.33;3.00;;;;;26.70;48.28;24871.41;6300360;22;45850;-92
2023/05/21 09:38:11;;;;;;;;;4.33;4.33;;;;;27.00;47.26;30724.38;6303040;22;46078;-92
2023/05/21 09:40:42;;;;;;;;;4.00;3.00;;;;;27.50;46.69;32010.63;6303950;22;45475;-89
2023/05/21 09:43:12;;;;;;;;;3.67;3.00;;;;;27.80;46.24;35470.03;6303071;22;45353;-92
2023/05/21 09:45:49;;;;;;;;;4.67;3.67;;;;;28.09;45.95;37300.25;6298903;22;45530;-92
2023/05/21 09:48:14;;;;;;;;;4.00;4.00;;;;;28.15;45.38;41166.31;6302728;22;47338;-91
2023/05/21 09:50:40;;;;;;;;;4.00;4.00;;;;;28.39;45.38;41561.56;6303098;22;45289;-94
2023/05/21 09:53:11;;;;;;;;;3.00;3.00;;;;;28.64;45.06;42909.03;6302851;22;45324;-90
2023/05/21 09:55:36;;;;;;;;;4.00;4.00;;;;;28.78;44.56;45223.75;6302825;22;45324;-87
2023/05/21 09:58:03;;;;;;;;;3.67;3.67;;;;;28.93;44.35;47584.97;6302768;22;46855;-88
2023/05/21 10:00:29;;;;;;;;;4.00;4.00;;;;;29.09;43.85;49383.22;6301617;22;45591;-86
2023/05/21 10:03:04;;;;;;;;;6.00;3.67;;;;;29.31;43.57;50223.16;6302800;22;45388;-89
2023/05/21 10:05:30;;;;;;;;;4.00;4.00;;;;;29.74;42.54;54491.97;6302753;22;45435;-92
2023/05/21 10:08:00;;;;;;;;;3.33;3.33;;;;;30.00;42.31;55815.06;6302203;22;46041;-86
2023/05/21 10:10:27;;;;;;;;;5.00;4.00;;;;;29.90;41.62;57797.94;6303145;22;45770;-92
2023/05/21 10:13:08;;;;;;;;;4.33;4.33;;;;;29.95;41.22;60114.97;6303121;22;45646;-89
2023/05/21 10:15:42;;;;;;;;;3.00;3.00;;;;;29.96;41.28;60981.84;6302504;22;45463;-90
2023/05/21 10:18:09;;;;;;;;;6.00;6.00;;;;;30.02;41.19;61714.91;6301933;22;47225;-93
2023/05/21 10:20:36;;;;;;;;;5.67;5.67;;;;;30.06;40.66;62843.69;6303288;22;45427;-95
2023/05/21 10:23:02;;;;;;;;;5.00;5.00;;;;;30.27;40.49;63707.09;6302805;22;45823;-90
2023/05/21 10:25:29;;;;;;;;;6.67;5.33;;;;;30.44;40.43;64060.41;6301495;22;45851;-91
2023/05/21 10:27:56;;;;;;;;;5.00;5.00;;;;;30.43;40.09;65234.75;6300195;22;46107;-90
2023/05/21 10:30:23;;;;;;;;;6.00;5.33;;;;;30.34;39.73;65938.41;6301597;22;45380;-93
2023/05/21 10:32:48;;;;;;;;;6.00;5.00;;;;;30.33;40.40;65973.28;6302001;22;45429;-92
2023/05/21 10:35:15;;;;;;;;;6.00;6.00;;;;;30.40;40.26;66190.59;6299351;22;45469;-90
2023/05/21 10:37:45;;;;;;;;;5.00;5.00;;;;;30.55;39.93;66548.56;6301462;22;46141;-85
2023/05/21 10:40:11;;;;;;;;;4.33;4.33;;;;;30.53;39.23;66840.31;6300850;22;45355;-86
2023/05/21 10:43:05;;;;;;;;;5.00;5.00;;;;;30.47;39.31;67436.88;6302399;22;45362;-83
2023/05/21 10:46:07;;;;;;;;;5.00;5.00;;;;;30.45;38.86;68059.91;6301602;22;45355;-87
2023/05/21 10:49:10;;;;;;;;;4.00;4.00;;;;;30.35;39.35;68255.59;6300019;22;45996;-86
2023/05/21 10:52:09;;;;;;;;;3.67;3.67;;;;;30.04;39.03;68353.56;6301149;22;45741;-85
2023/05/21 10:54:54;;;;;;;;;6.33;6.33;;;;;29.56;39.18;68519.91;6301376;22;45364;-86
2023/05/21 10:57:56;;;;;;;;;5.00;5.00;;;;;29.43;39.17;68698.69;6302808;22;45423;-88
2023/05/21 11:00:26;;;;;;;;;7.33;7.33;;;;;29.13;39.66;68584.44;6302155;22;45730;-90
2023/05/21 11:02:52;;;;;;;;;6.67;6.33;;;;;29.17;39.78;68657.81;6301143;22;45319;-90
2023/05/21 11:05:41;;;;;;;;;4.67;4.67;;;;;29.37;39.69;68704.66;6303219;22;45647;-88
2023/05/21 11:08:46;;;;;;;;;7.67;6.00;;;;;29.50;39.28;68724.78;6299125;22;45359;-89
2023/05/21 11:11:13;;;;;;;;;6.00;4.00;;;;;29.35;39.81;68670.19;6176654;22;47171;-88
2023/05/21 11:13:51;;;;;;;;;6.00;4.67;;;;;29.41;39.83;68729.03;6205730;22;45409;-88
2023/05/21 11:16:21;;;;;;;;;6.67;6.67;;;;;29.38;39.72;68758.16;6205582;22;45319;-87
2023/05/21 11:18:47;;;;;;;;;5.33;5.33;;;;;29.30;39.82;68778.13;6207339;22;45571;-87
2023/05/21 11:21:19;;;;;;;;;7.67;5.33;;;;;29.25;39.80;68906.91;6204883;22;45914;-87
2023/05/21 11:24:01;;;;;;;;;5.67;5.67;;;;;28.97;39.68;68800.94;6206834;22;45790;-88
2023/05/21 11:26:54;;;;;;;;;6.00;5.00;;;;;29.31;39.64;68798.38;6204333;22;45415;-88
2023/05/21 11:29:19;;;;;;;;;6.67;6.33;;;;;29.14;39.95;68926.59;6179551;22;45737;-87
2023/05/21 11:31:49;;;;;;;;;6.33;5.00;;;;;29.35;40.09;68860.31;6205413;22;45583;-86
2023/05/21 11:34:27;;;;;;;;;5.67;5.67;;;;;29.42;40.01;68801.03;6206520;22;45914;-82
2023/05/21 11:37:15;;;;;;;;;9.67;9.00;;;;;29.43;39.10;68916.03;6205830;22;45875;-89
2023/05/21 11:39:41;;;;;;;;;6.00;6.00;;;;;29.49;39.86;69026.66;6205647;22;45409;-86
2023/05/21 11:42:06;;;;;;;;;5.00;5.00;;;;;29.51;39.84;69004.50;6206273;22;46276;-93
2023/05/21 11:44:45;;;;;;;;;4.33;4.33;;;;;29.43;39.61;69071.94;6207564;22;47702;-94
2023/05/21 11:47:17;;;;;;;;;6.67;6.67;;;;;29.67;39.32;69120.97;6274477;22;45795;-90
2023/05/21 11:49:43;;;;;;;;;5.00;5.00;;;;;29.77;38.79;69266.38;6306832;22;45430;-96
2023/05/21 11:52:12;;;;;;;;;4.33;4.33;;;;;29.74;39.13;69335.84;6306657;22;46072;-92
2023/05/21 11:55:04;;;;;;;;;5.67;4.67;;;;;29.88;38.29;69576.66;6311577;22;45707;-96
2023/05/21 11:57:29;;;;;;;;;3.00;3.00;;;;;30.06;38.38;69856.03;6274863;22;45374;-89
2023/05/21 11:59:57;;;;;;;;;4.00;4.00;;;;;30.08;38.29;69976.31;6303714;22;45657;-92
2023/05/21 12:02:26;;;;;;;;;3.00;3.00;;;;;30.11;38.13;70044.19;6275704;22;47960;-82
2023/05/21 12:04:58;;;;;;;;;4.67;4.67;;;;;30.04;37.94;70082.78;6301761;22;45307;-85
2023/05/21 12:10:45;;;;;;;;;4.33;4.33;;;;;29.88;38.04;70266.66;6309060;22;45469;-91
2023/05/21 12:13:11;;;;;;;;;4.00;3.00;;;;;29.07;38.18;70238.63;6333513;22;45616;-89
2023/05/21 12:15:36;;;;;;;;;4.00;4.00;;;;;29.26;38.07;70209.72;6333142;22;45363;-90
2023/05/21 12:18:01;;;;;;;;;4.00;4.00;;;;;29.70;38.26;70309.88;6332360;22;45707;-89
2023/05/21 12:20:27;;;;;;;;;5.33;3.33;;;;;29.57;38.12;70305.72;6335550;22;45638;-89
2023/05/21 12:22:53;;;;;;;;;3.33;3.33;;;;;29.41;38.22;70241.38;6334625;22;46198;-87
2023/05/21 12:25:19;;;;;;;;;3.33;3.33;;;;;29.39;38.24;70284.69;6331366;22;45791;-88
2023/05/21 12:27:45;;;;;;;;;3.00;2.00;;;;;28.95;38.39;70211.19;6334942;22;45376;-87
2023/05/21 12:30:11;;;;;;;;;3.33;3.33;;;;;29.12;38.48;70320.94;6334860;22;45783;-87
2023/05/21 12:32:42;;;;;;;;;2.67;2.33;;;;;29.17;38.83;70237.03;6303365;22;47988;-87
2023/05/21 12:35:08;;;;;;;;;3.33;3.33;;;;;28.61;38.47;70095.97;6332390;22;45317;-87
2023/05/21 12:37:34;;;;;;;;;7.33;7.33;;;;;28.49;38.62;70214.91;6305892;22;45822;-87
2023/05/21 12:40:06;;;;;;;;;3.00;3.00;;;;;27.96;38.38;70076.28;6307386;22;45540;-86
2023/05/21 12:42:35;;;;;;;;;4.00;4.00;;;;;28.55;38.55;70221.53;6303319;22;46324;-86
2023/05/21 12:45:05;;;;;;;;;2.33;2.33;;;;;28.27;38.81;70216.25;6333879;22;45404;-88
2023/05/21 12:47:32;;;;;;;;;3.00;3.00;;;;;28.12;38.71;70060.13;6305237;22;45301;-86
2023/05/21 12:49:58;;;;;;;;;5.33;4.00;;;;;28.07;38.91;70092.19;6333761;22;45811;-86
2023/05/21 12:52:26;;;;;;;;;4.33;3.33;;;;;27.44;38.89;69961.34;6306861;22;45871;-87
2023/05/21 12:54:53;;;;;;;;;3.00;3.00;;;;;28.16;38.70;70178.56;6334422;22;45476;-87
2023/05/21 12:57:23;;;;;;;;;5.33;4.00;;;;;28.08;38.73;70046.56;6334177;22;45377;-87
2023/05/21 12:59:57;;;;;;;;;3.67;3.67;;;;;28.30;38.97;70069.63;6335144;22;45570;-87
2023/05/21 13:02:39;;;;;;;;;4.33;3.00;;;;;28.26;39.23;70154.59;6334256;22;46486;-87
2023/05/21 13:05:10;;;;;;;;;4.00;4.00;;;;;28.19;39.00;70079.41;6335175;22;45326;-87
2023/05/21 13:07:38;;;;;;;;;4.00;4.00;;;;;27.77;39.45;70013.28;6306414;22;45680;-87
2023/05/21 13:10:05;;;;;;;;;4.33;4.33;;;;;28.07;39.14;70042.63;6307899;22;45601;-87
2023/05/21 13:12:32;;;;;;;;;3.00;3.00;;;;;27.99;39.21;69984.69;6334691;22;45302;-89
2023/05/21 13:15:02;;;;;;;;;3.00;3.00;;;;;27.74;39.75;69881.94;6335929;22;45369;-89
2023/05/21 13:17:28;;;;;;;;;4.00;4.00;;;;;27.83;39.57;69881.22;6307195;22;45746;-85
2023/05/21 13:20:07;;;;;;;;;5.00;5.00;;;;;27.77;39.92;69850.78;6307069;22;45449;-86
2023/05/21 13:22:34;;;;;;;;;4.67;3.00;;;;;27.76;39.82;69819.69;6305692;22;47622;-84
2023/05/21 13:25:00;;;;;;;;;4.33;3.33;;;;;27.35;40.11;69738.69;6305511;22;45398;-86
2023/05/21 13:27:26;;;;;;;;;4.00;4.00;;;;;27.72;39.55;69770.81;6305156;22;45370;-86
2023/05/21 13:29:51;;;;;;;;;3.67;3.67;;;;;27.33;39.45;69668.97;6334390;22;45692;-86
2023/05/21 13:32:17;;;;;;;;;3.00;3.00;;;;;27.07;39.88;69808.97;6334230;22;47033;-86
2023/05/21 13:34:43;;;;;;;;;3.00;3.00;;;;;27.15;39.69;69753.34;6335253;22;45382;-86
2023/05/21 13:37:08;;;;;;;;;4.00;4.00;;;;;27.02;40.02;69675.97;6335260;22;45638;-86
2023/05/21 13:39:33;;;;;;;;;3.33;3.33;;;;;26.93;40.25;69657.09;6335134;22;45729;-86
2023/05/21 13:41:59;;;;;;;;;5.00;4.00;;;;;27.17;40.28;69704.75;6305518;22;48345;-87
2023/05/21 13:44:24;;;;;;;;;4.00;4.00;;;;;27.30;40.17;69635.53;6306832;22;45555;-87
2023/05/21 13:46:49;;;;;;;;;4.00;4.00;;;;;27.40;40.08;69602.81;6332986;22;45330;-86
2023/05/21 13:49:15;;;;;;;;;3.00;3.00;;;;;27.37;40.32;69602.53;6307856;22;45405;-87
2023/05/21 13:51:41;;;;;;;;;4.00;4.00;;;;;27.07;40.31;69526.59;6334822;22;46191;-86
2023/05/21 13:54:06;;;;;;;;;5.00;4.00;;;;;26.95;40.50;69510.78;6307204;22;45344;-86
2023/05/21 13:56:32;;;;;;;;;4.00;4.00;;;;;26.68;40.49;69490.03;6307045;22;45260;-87
2023/05/21 13:58:58;;;;;;;;;4.33;3.33;;;;;27.04;40.42;69607.78;6307756;22;45601;-87
2023/05/21 14:01:23;;;;;;;;;3.00;3.00;;;;;27.22;40.40;69498.31;6306883;22;47208;-88
2023/05/21 14:03:49;;;;;;;;;4.00;4.00;;;;;27.03;40.31;69521.84;6307889;22;45410;-89
2023/05/21 14:06:14;;;;;;;;;3.67;3.67;;;;;26.70;40.34;69481.00;6334198;22;45727;-88
2023/05/21 14:08:40;;;;;;;;;3.67;3.67;;;;;26.65;41.04;69439.75;6308062;22;45396;-89
2023/05/21 14:11:05;;;;;;;;;4.00;4.00;;;;;26.47;40.61;69492.13;6335662;22;45485;-89
2023/05/21 14:13:31;;;;;;;;;3.00;3.00;;;;;26.83;40.37;69596.91;6306889;22;46928;-89
2023/05/21 14:15:56;;;;;;;;;3.00;3.00;;;;;26.52;40.64;69322.38;6305968;22;45387;-90
2023/05/21 14:18:22;;;;;;;;;3.67;2.67;;;;;26.77;40.78;69326.50;6305893;22;45486;-91
2023/05/21 14:20:47;;;;;;;;;3.00;3.00;;;;;26.82;41.18;69434.97;6335544;22;45370;-87
2023/05/21 14:23:12;;;;;;;;;3.00;3.00;;;;;26.87;40.68;69316.69;6305800;22;45436;-88
2023/05/21 14:25:38;;;;;;;;;2.00;2.00;;;;;26.68;41.12;69297.41;6306814;22;45429;-88
2023/05/21 14:28:04;;;;;;;;;6.00;5.00;;;;;26.49;40.57;69261.25;6307632;22;45441;-87
2023/05/21 14:30:29;;;;;;;;;3.00;3.00;;;;;26.62;40.99;69227.28;6335572;22;46366;-88
2023/05/21 14:32:55;;;;;;;;;4.00;4.00;;;;;26.31;41.43;69230.19;6307203;22;45561;-86
2023/05/21 14:35:20;;;;;;;;;3.00;3.00;;;;;26.56;41.10;69261.44;6335164;22;45311;-90
2023/05/21 14:37:45;;;;;;;;;5.00;3.67;;;;;26.37;41.28;69230.75;6307631;22;45288;-86
2023/05/21 14:40:11;;;;;;;;;4.33;4.33;;;;;26.63;41.45;69168.81;6334745;22;45429;-85
2023/05/21 14:42:37;;;;;;;;;3.00;3.00;;;;;26.41;41.42;69103.19;6335258;22;45402;-86
2023/05/21 14:45:02;;;;;;;;;2.33;2.33;;;;;26.39;41.71;69043.88;6335169;22;45378;-86
2023/05/21 14:47:28;;;;;;;;;4.67;4.67;;;;;26.35;41.25;69098.78;6334598;22;45440;-87
2023/05/21 14:49:53;;;;;;;;;3.00;3.00;;;;;26.20;41.21;69176.50;6306202;22;48030;-86
2023/05/21 14:52:18;;;;;;;;;2.33;2.33;;;;;26.44;41.72;69019.38;6304652;22;45388;-86
2023/05/21 14:54:43;;;;;;;;;2.00;2.00;;;;;26.13;41.61;69021.81;6335539;22;45582;-87
2023/05/21 14:57:09;;;;;;;;;3.00;3.00;;;;;26.30;42.10;68995.84;6307724;22;45649;-87
2023/05/21 14:59:34;;;;;;;;;4.33;3.00;;;;;26.36;42.04;68915.59;6335372;22;46342;-87
2023/05/21 15:02:00;;;;;;;;;3.00;3.00;;;;;26.01;42.01;68915.44;6335534;22;45824;-86
2023/05/21 15:04:25;;;;;;;;;3.00;2.67;;;;;26.24;42.12;68910.13;6334331;22;45393;-86
2023/05/21 15:06:50;;;;;;;;;4.00;3.00;;;;;26.03;42.02;68906.97;6335744;22;45516;-87
2023/05/21 15:09:16;;;;;;;;;3.00;3.00;;;;;25.54;42.06;68769.53;6334805;22;46175;-87
2023/05/21 15:11:43;;;;;;;;;3.00;2.00;;;;;25.88;42.01;68801.00;6334993;22;45410;-87
2023/05/21 15:14:10;;;;;;;;;3.00;3.00;;;;;25.63;42.12;68831.63;6335152;22;45275;-87
2023/05/21 15:16:35;;;;;;;;;2.33;2.33;;;;;26.04;42.31;68889.78;6307160;22;45453;-86
2023/05/21 15:19:01;;;;;;;;;4.00;4.00;;;;;25.90;42.26;68730.22;6335016;22;45359;-87
2023/05/21 15:21:26;;;;;;;;;4.00;2.67;;;;;25.99;42.38;68671.91;6334819;22;45596;-88
2023/05/21 15:23:51;;;;;;;;;4.33;4.33;;;;;25.83;41.90;68689.44;6334995;22;45282;-87
2023/05/21 15:26:17;;;;;;;;;3.00;3.00;;;;;25.79;42.58;68682.00;6307577;22;45679;-87
2023/05/21 15:28:42;;;;;;;;;4.00;4.00;;;;;25.70;42.56;68563.63;6334623;22;46297;-87
2023/05/21 15:31:07;;;;;;;;;3.00;3.00;;;;;25.87;42.21;68574.97;6332819;22;45318;-87
2023/05/21 15:33:33;;;;;;;;;4.67;4.00;;;;;25.19;42.39;68482.56;6332703;22;45322;-85
2023/05/21 15:35:58;;;;;;;;;3.00;3.00;;;;;26.13;42.95;68514.38;6333752;22;45480;-85
2023/05/21 15:38:24;;;;;;;;;3.67;3.67;;;;;26.09;42.96;68478.31;6333940;22;46313;-85
2023/05/21 15:40:50;;;;;;;;;3.67;3.33;;;;;25.70;42.66;68395.13;6332932;22;45297;-85